createdAt,value
2023-06-27T00:00:35.382Z,34.63
2023-06-27T00:01:35.419Z,34.63
2023-06-27T00:02:35.421Z,34.64
2023-06-27T00:03:35.528Z,34.63
2023-06-27T00:04:35.499Z,34.64
2023-06-27T00:05:35.485Z,34.63
2023-06-27T00:06:35.538Z,34.66
2023-06-27T00:07:36.366Z,34.64
2023-06-27T00:08:35.574Z,34.62
2023-06-27T00:09:35.576Z,34.61
2023-06-27T00:10:35.650Z,34.64
2023-06-27T00:11:35.645Z,34.65
2023-06-27T00:12:35.689Z,34.64
2023-06-27T00:13:35.684Z,34.62
2023-06-27T00:14:35.707Z,34.66
2023-06-27T00:15:35.729Z,34.64
2023-06-27T00:16:35.784Z,34.64
2023-06-27T00:17:35.861Z,34.69
2023-06-27T00:18:35.943Z,34.71
2023-06-27T00:19:35.901Z,34.72
2023-06-27T00:20:35.897Z,34.74
2023-06-27T00:21:35.924Z,34.71
2023-06-27T00:22:35.962Z,34.71
2023-06-27T00:23:35.966Z,34.73
2023-06-27T00:24:36.006Z,34.75
2023-06-27T00:25:36.048Z,34.79
2023-06-27T00:26:36.074Z,34.78
2023-06-27T00:27:36.101Z,34.82
2023-06-27T00:28:36.111Z,34.86
2023-06-27T00:29:36.210Z,34.85
2023-06-27T00:30:36.179Z,34.86
2023-06-27T00:31:36.191Z,34.87
2023-06-27T00:32:36.276Z,34.88
2023-06-27T00:33:36.267Z,34.85
2023-06-27T00:34:36.287Z,34.87
2023-06-27T00:35:36.285Z,34.89
2023-06-27T00:36:36.328Z,34.88
2023-06-27T00:37:36.339Z,34.93
2023-06-27T00:38:36.381Z,34.91
2023-06-27T00:39:36.363Z,34.92
2023-06-27T00:40:36.522Z,34.94
2023-06-27T00:41:36.455Z,34.95
2023-06-27T00:42:36.452Z,34.94
2023-06-27T00:43:36.493Z,34.99
2023-06-27T00:44:36.507Z,34.99
2023-06-27T00:45:36.534Z,35.00
2023-06-27T00:46:36.559Z,34.98
2023-06-27T00:47:36.629Z,35.01
2023-06-27T00:48:36.600Z,35.03
2023-06-27T00:49:36.655Z,35.05
2023-06-27T00:50:36.655Z,35.08
2023-06-27T00:51:36.700Z,35.06
2023-06-27T00:52:36.715Z,35.04
2023-06-27T00:53:36.772Z,35.04
2023-06-27T00:54:36.782Z,35.07
2023-06-27T00:55:36.884Z,35.09
2023-06-27T00:56:36.826Z,35.10
2023-06-27T00:57:36.870Z,35.09
2023-06-27T00:58:36.872Z,35.09
2023-06-27T00:59:36.880Z,35.11
2023-06-27T01:00:36.909Z,35.11
2023-06-27T01:01:36.969Z,35.11
2023-06-27T01:02:37.062Z,35.11
2023-06-27T01:03:37.060Z,35.14
2023-06-27T01:04:37.027Z,35.18
2023-06-27T01:05:37.162Z,35.17
2023-06-27T01:06:37.082Z,35.15
2023-06-27T01:07:37.120Z,35.17
2023-06-27T01:08:37.181Z,35.15
2023-06-27T01:09:37.178Z,35.18
2023-06-27T01:10:37.260Z,35.21
2023-06-27T01:11:37.231Z,35.21
2023-06-27T01:12:37.240Z,35.19
2023-06-27T01:13:37.261Z,35.21
2023-06-27T01:14:37.268Z,35.23
2023-06-27T01:15:37.592Z,35.22
2023-06-27T01:16:37.354Z,35.22
2023-06-27T01:17:37.440Z,35.22
2023-06-27T01:18:37.429Z,35.23
2023-06-27T01:19:37.472Z,35.21
2023-06-27T01:20:37.453Z,35.20
2023-06-27T01:21:37.569Z,35.23
2023-06-27T01:22:37.490Z,35.23
2023-06-27T01:23:37.530Z,35.22
2023-06-27T01:24:37.557Z,35.24
2023-06-27T01:25:37.654Z,35.24
2023-06-27T01:26:37.617Z,35.27
2023-06-27T01:27:37.630Z,35.26
2023-06-27T01:28:37.733Z,35.26
2023-06-27T01:29:37.664Z,35.27
2023-06-27T01:30:37.728Z,35.30
2023-06-27T01:31:37.776Z,35.30
2023-06-27T01:32:37.753Z,35.31
2023-06-27T01:33:37.801Z,35.32
2023-06-27T01:34:37.845Z,35.31
2023-06-27T01:35:38.093Z,35.35
2023-06-27T01:36:38.111Z,35.35
2023-06-27T01:37:37.977Z,35.38
2023-06-27T01:38:37.933Z,35.39
2023-06-27T01:39:37.971Z,35.36
2023-06-27T01:40:37.987Z,35.40
2023-06-27T01:41:38.015Z,35.39
2023-06-27T01:42:38.022Z,35.39
2023-06-27T01:43:38.028Z,35.39
2023-06-27T01:44:38.068Z,35.44
2023-06-27T01:45:38.369Z,35.42
2023-06-27T01:46:38.131Z,35.41
2023-06-27T01:47:38.209Z,35.39
2023-06-27T01:48:38.139Z,35.38
2023-06-27T01:49:38.183Z,35.39
2023-06-27T01:50:38.211Z,35.38
2023-06-27T01:51:38.237Z,35.43
2023-06-27T01:52:38.244Z,35.47
2023-06-27T01:53:38.292Z,35.49
2023-06-27T01:54:38.311Z,35.43
2023-06-27T01:55:38.667Z,35.46
2023-06-27T01:56:38.316Z,35.47
2023-06-27T01:57:38.371Z,35.45
2023-06-27T01:58:38.365Z,35.45
2023-06-27T01:59:38.393Z,35.45
2023-06-27T02:00:38.398Z,35.44
2023-06-27T02:01:38.490Z,35.42
2023-06-27T02:02:38.545Z,35.42
2023-06-27T02:03:38.545Z,35.44
2023-06-27T02:04:38.531Z,35.46
2023-06-27T02:05:38.879Z,35.45
2023-06-27T02:06:38.587Z,35.44
2023-06-27T02:07:38.597Z,35.48
2023-06-27T02:08:38.637Z,35.49
2023-06-27T02:09:38.647Z,35.52
2023-06-27T02:10:38.637Z,35.55
2023-06-27T02:11:38.709Z,35.53
2023-06-27T02:12:38.692Z,35.53
2023-06-27T02:13:38.749Z,35.52
2023-06-27T02:14:38.780Z,35.53
2023-06-27T02:15:38.964Z,35.52
2023-06-27T02:16:38.808Z,35.52
2023-06-27T02:17:38.892Z,35.51
2023-06-27T02:18:38.873Z,35.52
2023-06-27T02:19:38.897Z,35.52
2023-06-27T02:20:38.936Z,35.51
2023-06-27T02:21:38.938Z,35.52
2023-06-27T02:22:38.967Z,35.55
2023-06-27T02:23:39.034Z,35.58
2023-06-27T02:24:39.068Z,35.59
2023-06-27T02:25:39.445Z,35.59
2023-06-27T02:26:39.101Z,35.61
2023-06-27T02:27:39.116Z,35.59
2023-06-27T02:28:39.186Z,35.61
2023-06-27T02:29:39.207Z,35.59
2023-06-27T02:30:39.431Z,35.63
2023-06-27T02:31:39.266Z,35.64
2023-06-27T02:32:39.344Z,35.66
2023-06-27T02:33:39.300Z,35.67
2023-06-27T02:34:39.352Z,35.67
2023-06-27T02:35:39.681Z,35.67
2023-06-27T02:36:39.410Z,35.67
2023-06-27T02:37:39.439Z,35.70
2023-06-27T02:38:39.421Z,35.74
2023-06-27T02:39:39.488Z,35.72
2023-06-27T02:40:39.501Z,35.72
2023-06-27T02:41:39.497Z,35.72
2023-06-27T02:42:39.508Z,35.71
2023-06-27T02:43:39.579Z,35.69
2023-06-27T02:44:39.607Z,35.72
2023-06-27T02:45:39.850Z,35.73
2023-06-27T02:46:39.646Z,35.70
2023-06-27T02:47:39.711Z,35.70
2023-06-27T02:48:39.680Z,35.73
2023-06-27T02:49:39.722Z,35.70
2023-06-27T02:50:39.729Z,35.71
2023-06-27T02:51:39.786Z,35.71
2023-06-27T02:52:39.795Z,35.72
2023-06-27T02:53:39.898Z,35.72
2023-06-27T02:54:39.902Z,35.72
2023-06-27T02:55:40.213Z,35.73
2023-06-27T02:56:39.927Z,35.75
2023-06-27T02:57:39.960Z,35.77
2023-06-27T02:58:39.978Z,35.78
2023-06-27T02:59:40.005Z,35.81
2023-06-27T03:00:40.034Z,35.80
2023-06-27T03:01:40.091Z,35.83
2023-06-27T03:02:40.245Z,35.82
2023-06-27T03:03:40.187Z,35.81
2023-06-27T03:04:40.299Z,35.83
2023-06-27T03:05:40.442Z,35.83
2023-06-27T03:06:40.217Z,35.82
2023-06-27T03:07:40.241Z,35.82
2023-06-27T03:08:40.284Z,35.85
2023-06-27T03:09:40.331Z,35.85
2023-06-27T03:10:40.332Z,35.83
2023-06-27T03:11:40.356Z,35.84
2023-06-27T03:12:40.373Z,35.86
2023-06-27T03:13:40.412Z,35.86
2023-06-27T03:14:40.445Z,35.88
2023-06-27T03:15:40.652Z,35.90
2023-06-27T03:16:40.508Z,35.90
2023-06-27T03:17:42.060Z,35.87
2023-06-27T03:18:40.545Z,35.88
2023-06-27T03:19:45.172Z,35.86
2023-06-27T03:20:41.591Z,35.90
2023-06-27T03:21:40.569Z,35.88
2023-06-27T03:22:40.573Z,35.88
2023-06-27T03:23:40.546Z,35.84
2023-06-27T03:24:40.546Z,35.85
2023-06-27T03:25:40.736Z,35.89
2023-06-27T03:26:40.529Z,35.84
2023-06-27T03:27:40.551Z,35.83
2023-06-27T03:28:40.533Z,35.81
2023-06-27T03:29:40.483Z,35.82
2023-06-27T03:30:40.546Z,35.80
2023-06-27T03:31:40.540Z,35.78
2023-06-27T03:32:40.561Z,35.80
2023-06-27T03:33:40.471Z,35.78
2023-06-27T03:34:40.499Z,35.76
2023-06-27T03:35:40.952Z,35.76
2023-06-27T03:36:40.625Z,35.75
2023-06-27T03:37:40.625Z,35.73
2023-06-27T03:38:40.654Z,35.70
2023-06-27T03:39:40.680Z,35.75
2023-06-27T03:40:40.701Z,35.71
2023-06-27T03:41:40.742Z,35.72
2023-06-27T03:42:40.763Z,35.68
2023-06-27T03:43:40.830Z,35.68
2023-06-27T03:44:40.822Z,35.66
2023-06-27T03:45:41.203Z,35.68
2023-06-27T03:46:40.883Z,35.66
2023-06-27T03:47:40.992Z,35.65
2023-06-27T03:48:40.931Z,35.65
2023-06-27T03:49:40.958Z,35.61
2023-06-27T03:50:41.003Z,35.58
2023-06-27T03:51:41.026Z,35.61
2023-06-27T03:52:41.028Z,35.64
2023-06-27T03:53:41.060Z,35.62
2023-06-27T03:54:41.080Z,35.65
2023-06-27T03:55:41.340Z,35.66
2023-06-27T03:56:41.164Z,35.67
2023-06-27T03:57:41.175Z,35.66
2023-06-27T03:58:41.174Z,35.68
2023-06-27T03:59:41.228Z,35.67
2023-06-27T04:00:41.256Z,35.68
2023-06-27T04:01:41.276Z,35.67
2023-06-27T04:02:41.365Z,35.67
2023-06-27T04:03:41.460Z,35.68
2023-06-27T04:04:41.580Z,35.72
2023-06-27T04:05:41.628Z,35.70
2023-06-27T04:06:41.376Z,35.68
2023-06-27T04:07:41.435Z,35.69
2023-06-27T04:08:41.446Z,35.67
2023-06-27T04:09:41.451Z,35.64
2023-06-27T04:10:41.505Z,35.64
2023-06-27T04:11:41.506Z,35.59
2023-06-27T04:12:41.548Z,35.60
2023-06-27T04:13:41.549Z,35.57
2023-06-27T04:14:41.582Z,35.56
2023-06-27T04:15:42.065Z,35.52
2023-06-27T04:16:41.696Z,35.51
2023-06-27T04:17:41.767Z,35.51
2023-06-27T04:18:41.696Z,35.48
2023-06-27T04:19:41.713Z,35.46
2023-06-27T04:20:41.744Z,35.43
2023-06-27T04:21:41.784Z,35.38
2023-06-27T04:22:41.777Z,35.39
2023-06-27T04:23:41.827Z,35.37
2023-06-27T04:24:41.835Z,35.33
2023-06-27T04:25:42.175Z,35.37
2023-06-27T04:26:41.917Z,35.41
2023-06-27T04:27:41.920Z,35.37
2023-06-27T04:28:41.953Z,35.33
2023-06-27T04:29:41.972Z,35.30
2023-06-27T04:30:42.046Z,35.33
2023-06-27T04:31:42.101Z,35.32
2023-06-27T04:32:42.100Z,35.29
2023-06-27T04:33:42.130Z,35.24
2023-06-27T04:34:42.131Z,35.26
2023-06-27T04:35:42.456Z,35.21
2023-06-27T04:36:42.364Z,35.17
2023-06-27T04:37:42.213Z,35.20
2023-06-27T04:38:42.223Z,35.17
2023-06-27T04:39:42.286Z,35.13
2023-06-27T04:40:42.273Z,35.09
2023-06-27T04:41:42.381Z,35.02
2023-06-27T04:42:42.327Z,35.09
2023-06-27T04:43:42.363Z,35.05
2023-06-27T04:44:42.390Z,35.01
2023-06-27T04:45:42.684Z,35.06
2023-06-27T04:46:42.473Z,35.05
2023-06-27T04:47:42.505Z,35.02
2023-06-27T04:48:42.513Z,35.03
2023-06-27T04:49:42.514Z,35.01
2023-06-27T04:50:42.553Z,34.96
2023-06-27T04:51:42.921Z,34.92
2023-06-27T04:52:42.717Z,34.95
2023-06-27T04:53:42.670Z,34.89
2023-06-27T04:54:42.650Z,34.91
2023-06-27T04:55:42.939Z,34.92
2023-06-27T04:56:42.720Z,34.91
2023-06-27T04:57:42.760Z,34.91
2023-06-27T04:58:42.765Z,34.82
2023-06-27T04:59:42.829Z,34.77
2023-06-27T05:00:42.897Z,34.76
2023-06-27T05:01:50.416Z,34.75
2023-06-27T05:02:49.763Z,34.76
2023-06-27T05:03:43.917Z,34.71
2023-06-27T05:04:42.909Z,34.73
2023-06-27T05:05:43.161Z,34.69
2023-06-27T05:06:42.915Z,34.67
2023-06-27T05:07:42.938Z,34.66
2023-06-27T05:08:42.938Z,34.68
2023-06-27T05:09:42.937Z,34.68
2023-06-27T05:10:42.884Z,34.62
2023-06-27T05:11:42.909Z,34.59
2023-06-27T05:12:42.886Z,34.57
2023-06-27T05:13:42.905Z,34.55
2023-06-27T05:14:42.898Z,34.54
2023-06-27T05:15:43.369Z,34.57
2023-06-27T05:16:42.974Z,34.55
2023-06-27T05:17:43.013Z,34.52
2023-06-27T05:18:43.029Z,34.50
2023-06-27T05:19:43.049Z,34.51
2023-06-27T05:20:43.048Z,34.47
2023-06-27T05:21:43.130Z,34.48
2023-06-27T05:22:43.131Z,34.42
2023-06-27T05:23:43.154Z,34.40
2023-06-27T05:24:43.179Z,34.35
2023-06-27T05:25:43.366Z,34.34
2023-06-27T05:26:43.209Z,34.32
2023-06-27T05:27:43.265Z,34.34
2023-06-27T05:28:43.285Z,34.37
2023-06-27T05:29:43.281Z,34.34
2023-06-27T05:30:43.349Z,34.23
2023-06-27T05:31:43.398Z,34.20
2023-06-27T05:32:43.509Z,34.21
2023-06-27T05:33:43.412Z,34.17
2023-06-27T05:34:43.444Z,34.13
2023-06-27T05:35:43.646Z,33.89
2023-06-27T05:36:43.979Z,33.84
2023-06-27T05:37:43.985Z,33.65
2023-06-27T05:38:43.551Z,33.62
2023-06-27T05:39:43.595Z,33.54
2023-06-27T05:40:43.689Z,33.94
2023-06-27T05:41:43.716Z,33.93
2023-06-27T05:42:43.988Z,34.07
2023-06-27T05:43:43.772Z,33.93
2023-06-27T05:44:43.788Z,32.98
2023-06-27T05:45:44.004Z,33.26
2023-06-27T05:46:51.528Z,32.88
2023-06-27T05:47:43.868Z,33.10
2023-06-27T05:48:43.855Z,32.20
2023-06-27T05:49:43.898Z,32.46
2023-06-27T05:50:43.873Z,32.79
2023-06-27T05:51:44.055Z,33.18
2023-06-27T05:52:43.901Z,33.40
2023-06-27T05:53:43.892Z,33.52
2023-06-27T05:54:44.514Z,33.52
2023-06-27T05:55:43.900Z,32.97
2023-06-27T05:56:43.883Z,32.77
2023-06-27T05:57:44.018Z,32.45
2023-06-27T05:58:43.859Z,32.42
2023-06-27T05:59:43.875Z,32.52
2023-06-27T06:00:43.897Z,32.65
2023-06-27T06:01:43.941Z,32.24
2023-06-27T06:02:44.172Z,32.33
2023-06-27T06:03:46.059Z,32.16
2023-06-27T06:04:44.072Z,32.41
2023-06-27T06:05:44.093Z,32.32
2023-06-27T06:06:44.176Z,32.22
2023-06-27T06:07:44.156Z,32.19
2023-06-27T06:08:44.174Z,32.00
2023-06-27T06:09:44.317Z,32.81
2023-06-27T06:10:44.322Z,32.63
2023-06-27T06:11:44.323Z,32.69
2023-06-27T06:12:44.380Z,32.67
2023-06-27T06:13:44.394Z,32.73
2023-06-27T06:14:44.564Z,32.53
2023-06-27T06:15:44.528Z,32.53
2023-06-27T06:16:44.692Z,32.46
2023-06-27T06:17:45.092Z,32.46
2023-06-27T06:18:44.727Z,32.39
2023-06-27T06:19:44.788Z,32.39
2023-06-27T06:20:44.803Z,32.36
2023-06-27T06:21:45.043Z,32.32
2023-06-27T06:22:45.021Z,32.32
2023-06-27T06:23:44.928Z,32.29
2023-06-27T06:24:44.981Z,32.23
2023-06-27T06:25:45.144Z,32.23
2023-06-27T06:26:45.170Z,32.24
2023-06-27T06:27:45.124Z,32.24
2023-06-27T06:28:45.161Z,32.24
2023-06-27T06:29:45.207Z,32.19
2023-06-27T06:30:45.251Z,32.17
2023-06-27T06:31:45.321Z,32.18
2023-06-27T06:32:45.365Z,32.14
2023-06-27T06:33:45.480Z,32.13
2023-06-27T06:34:45.466Z,32.12
2023-06-27T06:35:45.475Z,32.11
2023-06-27T06:36:45.521Z,32.08
2023-06-27T06:37:46.081Z,32.07
2023-06-27T06:38:45.678Z,32.04
2023-06-27T06:39:45.678Z,32.07
2023-06-27T06:40:45.762Z,32.04
2023-06-27T06:41:45.782Z,32.04
2023-06-27T06:42:46.037Z,32.03
2023-06-27T06:43:45.905Z,32.02
2023-06-27T06:44:45.853Z,32.02
2023-06-27T06:45:45.950Z,32.01
2023-06-27T06:46:46.052Z,32.03
2023-06-27T06:47:46.113Z,32.01
2023-06-27T06:48:46.015Z,31.96
2023-06-27T06:49:46.059Z,31.96
2023-06-27T06:50:46.096Z,31.91
2023-06-27T06:51:46.136Z,31.88
2023-06-27T06:52:46.188Z,31.93
2023-06-27T06:53:46.203Z,31.89
2023-06-27T06:54:46.207Z,31.92
2023-06-27T06:55:46.265Z,31.90
2023-06-27T06:56:46.315Z,31.92
2023-06-27T06:57:46.353Z,31.93
2023-06-27T06:58:46.526Z,31.91
2023-06-27T06:59:46.396Z,31.96
2023-06-27T07:00:46.441Z,31.98
2023-06-27T07:01:46.543Z,31.95
2023-06-27T07:02:46.594Z,32.04
2023-06-27T07:03:46.571Z,31.99
2023-06-27T07:04:46.601Z,31.97
2023-06-27T07:05:46.648Z,31.99
2023-06-27T07:06:46.719Z,31.97
2023-06-27T07:07:46.662Z,32.04
2023-06-27T07:08:46.708Z,32.00
2023-06-27T07:09:46.707Z,32.03
2023-06-27T07:10:46.752Z,32.00
2023-06-27T07:11:46.802Z,32.04
2023-06-27T07:12:46.829Z,32.02
2023-06-27T07:13:46.881Z,32.01
2023-06-27T07:14:46.890Z,32.01
2023-06-27T07:15:46.913Z,32.03
2023-06-27T07:16:46.934Z,32.05
2023-06-27T07:17:47.031Z,32.11
2023-06-27T07:18:46.998Z,32.11
2023-06-27T07:19:47.054Z,32.11
2023-06-27T07:20:47.103Z,32.13
2023-06-27T07:21:47.133Z,32.17
2023-06-27T07:22:47.144Z,32.13
2023-06-27T07:23:47.596Z,32.17
2023-06-27T07:24:47.187Z,32.15
2023-06-27T07:25:47.234Z,32.18
2023-06-27T07:26:47.262Z,32.17
2023-06-27T07:27:47.332Z,32.17
2023-06-27T07:28:47.576Z,32.19
2023-06-27T07:29:47.370Z,32.20
2023-06-27T07:30:47.479Z,32.20
2023-06-27T07:31:47.411Z,32.20
2023-06-27T07:32:47.470Z,32.23
2023-06-27T07:33:47.600Z,32.25
2023-06-27T07:34:47.470Z,32.22
2023-06-27T07:35:47.515Z,32.23
2023-06-27T07:36:47.518Z,32.27
2023-06-27T07:37:47.516Z,32.24
2023-06-27T07:38:47.595Z,32.24
2023-06-27T07:39:47.533Z,32.27
2023-06-27T07:40:47.574Z,32.25
2023-06-27T07:41:47.534Z,32.25
2023-06-27T07:42:47.589Z,32.27
2023-06-27T07:43:48.090Z,32.28
2023-06-27T07:44:47.606Z,32.26
2023-06-27T07:45:47.634Z,32.27
2023-06-27T07:46:47.611Z,32.25
2023-06-27T07:47:47.671Z,32.27
2023-06-27T07:48:48.132Z,32.29
2023-06-27T07:49:47.687Z,32.28
2023-06-27T07:50:47.674Z,32.29
2023-06-27T07:51:47.690Z,32.31
2023-06-27T07:52:47.709Z,32.32
2023-06-27T07:53:48.096Z,32.30
2023-06-27T07:54:47.740Z,32.34
2023-06-27T07:55:48.680Z,32.37
2023-06-27T07:56:47.759Z,32.33
2023-06-27T07:57:47.694Z,32.33
2023-06-27T07:58:48.068Z,32.34
2023-06-27T07:59:47.651Z,32.35
2023-06-27T08:00:47.600Z,32.32
2023-06-27T08:01:47.647Z,32.35
2023-06-27T08:02:47.645Z,32.37
2023-06-27T08:03:47.699Z,32.38
2023-06-27T08:04:47.619Z,32.38
2023-06-27T08:05:47.594Z,32.41
2023-06-27T08:06:47.587Z,32.37
2023-06-27T08:07:47.599Z,32.38
2023-06-27T08:08:47.583Z,32.41
2023-06-27T08:09:47.540Z,32.41
2023-06-27T08:10:47.555Z,32.43
2023-06-27T08:11:47.508Z,32.43
2023-06-27T08:13:42.091Z,32.45
2023-06-27T08:14:41.949Z,32.44
2023-06-27T08:15:41.949Z,32.43
2023-06-27T08:16:41.935Z,32.43
2023-06-27T08:17:42.011Z,32.46
2023-06-27T08:18:41.938Z,32.45
2023-06-27T08:19:41.965Z,32.46
2023-06-27T08:20:42.272Z,32.44
2023-06-27T08:21:41.972Z,32.42
2023-06-27T08:22:41.988Z,32.43
2023-06-27T08:23:42.813Z,32.44
2023-06-27T08:24:41.961Z,32.41
2023-06-27T08:25:42.287Z,32.44
2023-06-27T08:26:41.963Z,32.44
2023-06-27T08:27:42.037Z,32.44
2023-06-27T08:28:41.992Z,32.45
2023-06-27T08:29:41.992Z,32.45
2023-06-27T08:30:42.180Z,32.46
2023-06-27T08:31:41.974Z,32.47
2023-06-27T08:32:42.004Z,32.49
2023-06-27T08:33:41.996Z,32.48
2023-06-27T08:34:42.113Z,32.48
2023-06-27T08:35:41.980Z,32.49
2023-06-27T08:36:41.967Z,32.54
2023-06-27T08:37:41.978Z,32.50
2023-06-27T08:38:41.978Z,32.50
2023-06-27T08:39:42.659Z,32.51
2023-06-27T08:40:42.898Z,32.50
2023-06-27T08:41:41.961Z,32.51
2023-06-27T08:42:41.987Z,32.53
2023-06-27T08:43:41.952Z,32.55
2023-06-27T08:44:41.944Z,32.52
2023-06-27T08:45:41.963Z,32.53
2023-06-27T08:46:41.960Z,32.53
2023-06-27T08:47:42.010Z,32.52
2023-06-27T08:48:41.946Z,32.53
2023-06-27T08:49:42.798Z,32.53
2023-06-27T08:50:42.232Z,32.52
2023-06-27T08:51:42.112Z,32.55
2023-06-27T08:52:42.009Z,32.54
2023-06-27T08:53:42.001Z,32.52
2023-06-27T08:54:42.249Z,32.54
2023-06-27T08:55:42.048Z,32.55
2023-06-27T08:56:42.056Z,32.54
2023-06-27T08:57:42.112Z,32.59
2023-06-27T08:58:42.133Z,32.57
2023-06-27T08:59:43.946Z,32.57
2023-06-27T09:00:42.382Z,32.53
2023-06-27T09:01:42.302Z,32.55
2023-06-27T09:02:42.528Z,32.52
2023-06-27T09:03:42.414Z,32.53
2023-06-27T09:04:42.518Z,32.57
2023-06-27T09:05:42.421Z,32.55
2023-06-27T09:06:42.497Z,32.60
2023-06-27T09:07:42.503Z,32.59
2023-06-27T09:08:42.570Z,32.60
2023-06-27T09:09:42.666Z,32.62
2023-06-27T09:10:42.833Z,32.59
2023-06-27T09:11:42.679Z,32.61
2023-06-27T09:12:42.644Z,32.63
2023-06-27T09:13:42.679Z,32.63
2023-06-27T09:14:42.762Z,32.65
2023-06-27T09:15:43.910Z,32.65
2023-06-27T09:16:42.880Z,32.68
2023-06-27T09:17:42.795Z,32.65
2023-06-27T09:18:42.799Z,32.65
2023-06-27T09:19:42.828Z,32.64
2023-06-27T09:20:43.069Z,32.66
2023-06-27T09:21:42.861Z,32.63
2023-06-27T09:22:44.095Z,32.64
2023-06-27T09:23:43.627Z,32.66
2023-06-27T09:24:43.151Z,32.65
2023-06-27T09:25:43.144Z,32.64
2023-06-27T09:26:43.202Z,32.66
2023-06-27T09:27:43.188Z,32.65
2023-06-27T09:28:43.221Z,32.67
2023-06-27T09:29:43.270Z,32.68
2023-06-27T09:30:43.400Z,32.67
2023-06-27T09:31:43.467Z,32.69
2023-06-27T09:32:43.489Z,32.71
2023-06-27T09:33:45.777Z,32.69
2023-06-27T09:34:43.652Z,32.69
2023-06-27T09:36:00.325Z,32.73
2023-06-27T09:38:46.635Z,32.74
2023-06-27T09:39:44.684Z,32.75
2023-06-27T09:40:43.473Z,32.73
2023-06-27T09:41:43.447Z,32.79
2023-06-27T09:42:43.480Z,32.86
2023-06-27T09:43:43.459Z,32.81
2023-06-27T09:44:43.695Z,32.88
2023-06-27T09:45:43.609Z,32.88
2023-06-27T09:46:43.486Z,32.85
2023-06-27T09:47:45.046Z,32.83
2023-06-27T09:48:44.157Z,32.77
2023-06-27T09:49:45.107Z,32.75
2023-06-27T09:50:44.175Z,32.73
2023-06-27T09:51:43.659Z,32.71
2023-06-27T09:52:43.680Z,32.73
2023-06-27T09:53:43.809Z,32.73
2023-06-27T09:54:44.173Z,32.75
2023-06-27T09:55:43.972Z,32.76
2023-06-27T09:56:43.888Z,32.76
2023-06-27T09:57:43.980Z,32.75
2023-06-27T09:58:44.024Z,32.77
2023-06-27T09:59:44.686Z,32.75
2023-06-27T10:00:44.096Z,32.77
2023-06-27T10:01:45.139Z,32.74
2023-06-27T10:02:44.245Z,32.78
2023-06-27T10:03:44.259Z,32.77
2023-06-27T10:04:44.648Z,32.76
2023-06-27T10:05:54.407Z,32.78
2023-06-27T10:06:45.516Z,32.79
2023-06-27T10:07:44.335Z,32.79
2023-06-27T10:08:44.368Z,32.79
2023-06-27T10:09:44.367Z,32.84
2023-06-27T10:10:44.649Z,32.79
2023-06-27T10:11:44.322Z,32.79
2023-06-27T10:12:44.324Z,32.81
2023-06-27T10:13:44.314Z,32.80
2023-06-27T10:14:44.326Z,32.85
2023-06-27T10:15:44.692Z,32.83
2023-06-27T10:16:44.466Z,32.81
2023-06-27T10:17:44.569Z,32.80
2023-06-27T10:18:52.061Z,32.80
2023-06-27T10:19:44.583Z,32.83
2023-06-27T10:20:44.579Z,32.82
2023-06-27T10:21:44.566Z,32.82
2023-06-27T10:22:44.611Z,32.83
2023-06-27T10:23:44.604Z,32.80
2023-06-27T10:24:44.671Z,32.84
2023-06-27T10:25:44.893Z,32.81
2023-06-27T10:26:44.683Z,32.79
2023-06-27T10:27:44.576Z,32.86
2023-06-27T10:28:44.585Z,32.82
2023-06-27T10:29:44.587Z,32.87
2023-06-27T10:30:44.629Z,32.86
2023-06-27T10:31:44.604Z,32.83
2023-06-27T10:32:44.636Z,32.83
2023-06-27T10:33:44.608Z,32.84
2023-06-27T10:34:44.539Z,32.87
2023-06-27T10:35:44.672Z,32.89
2023-06-27T10:36:44.563Z,32.88
2023-06-27T10:37:44.578Z,32.89
2023-06-27T10:38:44.582Z,32.87
2023-06-27T10:39:44.724Z,32.85
2023-06-27T10:40:45.174Z,32.87
2023-06-27T10:41:44.772Z,32.86
2023-06-27T10:42:44.844Z,32.83
2023-06-27T10:43:44.874Z,32.81
2023-06-27T10:44:44.922Z,32.83
2023-06-27T10:45:45.186Z,32.86
2023-06-27T10:46:45.056Z,32.83
2023-06-27T10:47:45.215Z,32.82
2023-06-27T10:48:47.344Z,32.81
2023-06-27T10:49:45.201Z,32.95
2023-06-27T10:50:45.454Z,33.57
2023-06-27T10:51:45.318Z,33.56
2023-06-27T10:52:45.372Z,33.57
2023-06-27T10:53:45.392Z,33.54
2023-06-27T10:54:45.489Z,33.53
2023-06-27T10:55:45.521Z,33.32
2023-06-27T10:56:45.608Z,33.34
2023-06-27T10:57:45.674Z,33.35
2023-06-27T10:58:45.768Z,33.32
2023-06-27T10:59:45.685Z,33.30
2023-06-27T11:00:46.985Z,33.23
2023-06-27T11:01:45.799Z,33.15
2023-06-27T11:02:45.957Z,33.18
2023-06-27T11:03:46.019Z,33.09
2023-06-27T11:04:46.015Z,33.12
2023-06-27T11:05:46.016Z,33.13
2023-06-27T11:06:46.097Z,33.12
2023-06-27T11:07:46.098Z,33.13
2023-06-27T11:08:46.187Z,33.12
2023-06-27T11:09:46.237Z,33.13
2023-06-27T11:10:46.667Z,33.12
2023-06-27T11:11:46.311Z,33.11
2023-06-27T11:12:46.418Z,33.16
2023-06-27T11:13:46.447Z,33.14
2023-06-27T11:14:46.556Z,33.20
2023-06-27T11:15:46.548Z,33.17
2023-06-27T11:16:46.705Z,33.12
2023-06-27T11:17:46.714Z,33.14
2023-06-27T11:18:46.700Z,33.14
2023-06-27T11:19:46.775Z,33.15
2023-06-27T11:20:47.213Z,33.17
2023-06-27T11:21:46.861Z,33.20
2023-06-27T11:22:46.929Z,33.21
2023-06-27T11:23:46.985Z,33.20
2023-06-27T11:24:47.028Z,33.21
2023-06-27T11:25:47.148Z,33.17
2023-06-27T11:26:47.131Z,33.17
2023-06-27T11:27:47.174Z,33.17
2023-06-27T11:28:47.281Z,33.15
2023-06-27T11:29:47.376Z,33.13
2023-06-27T11:30:48.232Z,33.14
2023-06-27T11:31:47.441Z,33.16
2023-06-27T11:32:47.512Z,33.18
2023-06-27T11:33:47.488Z,33.25
2023-06-27T11:34:47.550Z,33.21
2023-06-27T11:35:47.732Z,33.21
2023-06-27T11:36:47.684Z,33.23
2023-06-27T11:37:47.728Z,33.24
2023-06-27T11:38:47.781Z,33.21
2023-06-27T11:39:47.875Z,33.26
2023-06-27T11:40:47.956Z,33.20
2023-06-27T11:41:47.963Z,33.22
2023-06-27T11:42:47.996Z,33.21
2023-06-27T11:43:48.028Z,33.24
2023-06-27T11:44:48.093Z,33.18
2023-06-27T11:45:48.191Z,33.24
2023-06-27T11:46:48.156Z,33.22
2023-06-27T11:47:48.245Z,33.19
2023-06-27T11:48:48.291Z,33.29
2023-06-27T11:49:48.306Z,33.23
2023-06-27T11:50:48.372Z,33.22
2023-06-27T11:51:48.441Z,33.21
2023-06-27T11:52:48.472Z,33.22
2023-06-27T11:53:48.512Z,33.21
2023-06-27T11:54:48.550Z,33.21
2023-06-27T11:55:51.885Z,33.22
2023-06-27T11:56:49.647Z,33.22
2023-06-27T11:57:48.629Z,33.27
2023-06-27T11:58:48.601Z,33.24
2023-06-27T11:59:48.561Z,33.22
2023-06-27T12:00:48.576Z,33.22
2023-06-27T12:01:48.615Z,33.18
2023-06-27T12:02:48.585Z,33.20
2023-06-27T12:03:48.624Z,33.21
2023-06-27T12:04:48.588Z,33.23
2023-06-27T12:05:48.585Z,33.22
2023-06-27T12:06:48.611Z,33.22
2023-06-27T12:07:48.654Z,33.21
2023-06-27T12:08:48.769Z,33.22
2023-06-27T12:09:48.743Z,33.23
2023-06-27T12:10:48.771Z,33.23
2023-06-27T12:11:48.873Z,33.26
2023-06-27T12:12:48.988Z,33.25
2023-06-27T12:13:48.959Z,33.24
2023-06-27T12:14:48.969Z,33.25
2023-06-27T12:15:49.010Z,33.25
2023-06-27T12:16:49.078Z,33.23
2023-06-27T12:17:49.118Z,33.26
2023-06-27T12:18:49.168Z,33.24
2023-06-27T12:19:49.242Z,33.29
2023-06-27T12:20:49.246Z,33.26
2023-06-27T12:21:49.345Z,33.23
2023-06-27T12:22:49.378Z,33.26
2023-06-27T12:23:49.459Z,33.27
2023-06-27T12:24:49.486Z,33.26
2023-06-27T12:25:49.535Z,33.26
2023-06-27T12:26:49.600Z,33.26
2023-06-27T12:27:49.623Z,33.23
2023-06-27T12:28:49.672Z,33.23
2023-06-27T12:29:49.719Z,33.22
2023-06-27T12:30:49.796Z,33.24
2023-06-27T12:31:49.836Z,33.26
2023-06-27T12:32:49.880Z,33.23
2023-06-27T12:33:49.901Z,33.24
2023-06-27T12:34:50.063Z,33.22
2023-06-27T12:35:49.984Z,33.26
2023-06-27T12:36:50.054Z,33.22
2023-06-27T12:37:50.228Z,33.22
2023-06-27T12:38:50.164Z,33.22
2023-06-27T12:39:50.163Z,33.23
2023-06-27T12:40:50.231Z,33.26
2023-06-27T12:41:50.284Z,33.24
2023-06-27T12:42:50.325Z,33.23
2023-06-27T12:43:50.349Z,33.25
2023-06-27T12:44:50.442Z,33.25
2023-06-27T12:45:50.453Z,33.27
2023-06-27T12:46:50.491Z,33.23
2023-06-27T12:47:50.599Z,33.23
2023-06-27T12:48:50.594Z,33.25
2023-06-27T12:49:50.641Z,33.26
2023-06-27T12:50:50.653Z,33.26
2023-06-27T12:51:50.738Z,33.24
2023-06-27T12:52:50.780Z,33.25
2023-06-27T12:53:50.826Z,33.26
2023-06-27T12:54:50.896Z,33.25
2023-06-27T12:55:50.927Z,33.26